sensor_id;sensor_type;location;lat;lon;timestamp;P1;durP1;ratioP1;P2;durP2;ratioP2
50681;SDS011;36779;52.168;20.878;2023-04-25T00:00:22;16.10;;;9.50;;
50681;SDS011;36779;52.168;20.878;2023-04-25T00:03:22;15.40;;;8.80;;
50681;SDS011;36779;52.168;20.878;2023-04-25T00:06:15;14.10;;;8.10;;
50681;SDS011;36779;52.168;20.878;2023-04-25T00:09:08;18.50;;;9.60;;
50681;SDS011;36779;52.168;20.878;2023-04-25T00:12:04;19.20;;;8.70;;
50681;SDS011;36779;52.168;20.878;2023-04-25T00:14:57;16.00;;;8.70;;
50681;SDS011;36779;52.168;20.878;2023-04-25T00:17:50;14.80;;;8.50;;
50681;SDS011;36779;52.168;20.878;2023-04-25T00:20:43;16.70;;;9.30;;
50681;SDS011;36779;52.168;20.878;2023-04-25T00:23:40;16.10;;;8.40;;
50681;SDS011;36779;52.168;20.878;2023-04-25T00:26:49;12.60;;;8.40;;
50681;SDS011;36779;52.168;20.878;2023-04-25T00:29:42;14.40;;;8.60;;
50681;SDS011;36779;52.168;20.878;2023-04-25T00:32:37;15.90;;;8.70;;
50681;SDS011;36779;52.168;20.878;2023-04-25T00:35:30;19.60;;;8.60;;
50681;SDS011;36779;52.168;20.878;2023-04-25T00:38:24;19.00;;;10.20;;
50681;SDS011;36779;52.168;20.878;2023-04-25T00:41:17;17.90;;;9.40;;
50681;SDS011;36779;52.168;20.878;2023-04-25T00:43:57;19.30;;;9.50;;
50681;SDS011;36779;52.168;20.878;2023-04-25T00:46:55;18.60;;;10.00;;
50681;SDS011;36779;52.168;20.878;2023-04-25T00:49:50;16.80;;;9.50;;
50681;SDS011;36779;52.168;20.878;2023-04-25T00:52:43;17.80;;;8.80;;
50681;SDS011;36779;52.168;20.878;2023-04-25T00:55:37;17.70;;;8.50;;
50681;SDS011;36779;52.168;20.878;2023-04-25T00:58:30;16.90;;;9.60;;
50681;SDS011;36779;52.168;20.878;2023-04-25T01:02:10;16.40;;;8.30;;
50681;SDS011;36779;52.168;20.878;2023-04-25T01:05:04;15.80;;;8.70;;
50681;SDS011;36779;52.168;20.878;2023-04-25T01:08:01;16.90;;;8.30;;
50681;SDS011;36779;52.168;20.878;2023-04-25T01:10:57;14.20;;;7.00;;
50681;SDS011;36779;52.168;20.878;2023-04-25T01:13:40;16.00;;;7.60;;
50681;SDS011;36779;52.168;20.878;2023-04-25T01:16:33;13.60;;;7.90;;
50681;SDS011;36779;52.168;20.878;2023-04-25T01:19:26;15.40;;;7.80;;
50681;SDS011;36779;52.168;20.878;2023-04-25T01:22:20;12.50;;;6.90;;
50681;SDS011;36779;52.168;20.878;2023-04-25T01:25:13;12.80;;;7.60;;
50681;SDS011;36779;52.168;20.878;2023-04-25T01:28:07;15.60;;;7.50;;
50681;SDS011;36779;52.168;20.878;2023-04-25T01:31:01;14.30;;;7.60;;
50681;SDS011;36779;52.168;20.878;2023-04-25T01:33:55;13.90;;;7.30;;
50681;SDS011;36779;52.168;20.878;2023-04-25T01:36:43;13.30;;;7.70;;
50681;SDS011;36779;52.168;20.878;2023-04-25T01:39:38;10.80;;;6.20;;
50681;SDS011;36779;52.168;20.878;2023-04-25T01:42:31;12.60;;;6.70;;
50681;SDS011;36779;52.168;20.878;2023-04-25T01:45:26;11.50;;;6.20;;
50681;SDS011;36779;52.168;20.878;2023-04-25T01:48:12;10.60;;;6.50;;
50681;SDS011;36779;52.168;20.878;2023-04-25T01:51:06;11.90;;;7.10;;
50681;SDS011;36779;52.168;20.878;2023-04-25T01:53:52;14.00;;;7.00;;
50681;SDS011;36779;52.168;20.878;2023-04-25T01:56:51;12.60;;;6.70;;
50681;SDS011;36779;52.168;20.878;2023-04-25T01:59:44;10.90;;;6.30;;
50681;SDS011;36779;52.168;20.878;2023-04-25T02:02:44;14.30;;;7.80;;
50681;SDS011;36779;52.168;20.878;2023-04-25T02:05:40;14.30;;;7.30;;
50681;SDS011;36779;52.168;20.878;2023-04-25T02:08:34;14.90;;;8.10;;
50681;SDS011;36779;52.168;20.878;2023-04-25T02:11:28;14.10;;;8.00;;
50681;SDS011;36779;52.168;20.878;2023-04-25T02:14:40;14.80;;;8.30;;
50681;SDS011;36779;52.168;20.878;2023-04-25T02:17:50;18.00;;;8.70;;
50681;SDS011;36779;52.168;20.878;2023-04-25T02:20:44;14.90;;;9.00;;
50681;SDS011;36779;52.168;20.878;2023-04-25T02:23:29;11.40;;;8.20;;
50681;SDS011;36779;52.168;20.878;2023-04-25T02:26:23;15.10;;;7.70;;
50681;SDS011;36779;52.168;20.878;2023-04-25T02:29:16;13.00;;;8.00;;
50681;SDS011;36779;52.168;20.878;2023-04-25T02:32:11;13.30;;;8.40;;
50681;SDS011;36779;52.168;20.878;2023-04-25T02:35:04;13.80;;;8.00;;
50681;SDS011;36779;52.168;20.878;2023-04-25T02:37:57;15.20;;;8.70;;
50681;SDS011;36779;52.168;20.878;2023-04-25T02:40:50;13.50;;;8.70;;
50681;SDS011;36779;52.168;20.878;2023-04-25T02:43:46;16.40;;;8.40;;
50681;SDS011;36779;52.168;20.878;2023-04-25T02:46:40;13.00;;;7.70;;
50681;SDS011;36779;52.168;20.878;2023-04-25T02:49:32;14.30;;;7.20;;
50681;SDS011;36779;52.168;20.878;2023-04-25T02:52:25;13.30;;;6.50;;
50681;SDS011;36779;52.168;20.878;2023-04-25T02:55:18;11.50;;;6.00;;
50681;SDS011;36779;52.168;20.878;2023-04-25T02:58:35;12.30;;;6.10;;
50681;SDS011;36779;52.168;20.878;2023-04-25T03:05:20;8.30;;;4.90;;
50681;SDS011;36779;52.168;20.878;2023-04-25T03:08:13;10.40;;;5.30;;
50681;SDS011;36779;52.168;20.878;2023-04-25T03:11:07;10.30;;;5.90;;
50681;SDS011;36779;52.168;20.878;2023-04-25T03:14:01;14.90;;;6.80;;
50681;SDS011;36779;52.168;20.878;2023-04-25T03:16:54;13.50;;;7.30;;
50681;SDS011;36779;52.168;20.878;2023-04-25T03:19:48;13.50;;;7.30;;
50681;SDS011;36779;52.168;20.878;2023-04-25T03:22:41;11.90;;;6.70;;
50681;SDS011;36779;52.168;20.878;2023-04-25T03:25:34;14.00;;;7.00;;
50681;SDS011;36779;52.168;20.878;2023-04-25T03:28:28;10.50;;;6.00;;
50681;SDS011;36779;52.168;20.878;2023-04-25T03:31:21;10.20;;;5.90;;
50681;SDS011;36779;52.168;20.878;2023-04-25T03:34:14;9.50;;;5.40;;
50681;SDS011;36779;52.168;20.878;2023-04-25T03:37:06;10.40;;;6.20;;
50681;SDS011;36779;52.168;20.878;2023-04-25T03:39:59;9.30;;;4.90;;
50681;SDS011;36779;52.168;20.878;2023-04-25T03:42:52;10.90;;;5.30;;
50681;SDS011;36779;52.168;20.878;2023-04-25T03:45:46;6.50;;;3.80;;
50681;SDS011;36779;52.168;20.878;2023-04-25T03:48:49;9.30;;;4.90;;
50681;SDS011;36779;52.168;20.878;2023-04-25T03:51:44;9.00;;;4.40;;
50681;SDS011;36779;52.168;20.878;2023-04-25T03:54:39;7.90;;;5.10;;
50681;SDS011;36779;52.168;20.878;2023-04-25T03:57:34;9.60;;;5.10;;
50681;SDS011;36779;52.168;20.878;2023-04-25T04:00:27;7.90;;;5.10;;
50681;SDS011;36779;52.168;20.878;2023-04-25T04:03:30;9.20;;;4.80;;
50681;SDS011;36779;52.168;20.878;2023-04-25T04:06:17;8.10;;;4.50;;
50681;SDS011;36779;52.168;20.878;2023-04-25T04:09:11;6.80;;;4.70;;
50681;SDS011;36779;52.168;20.878;2023-04-25T04:12:12;8.50;;;4.70;;
50681;SDS011;36779;52.168;20.878;2023-04-25T04:15:06;6.10;;;4.10;;
50681;SDS011;36779;52.168;20.878;2023-04-25T04:18:02;8.60;;;4.90;;
50681;SDS011;36779;52.168;20.878;2023-04-25T04:20:58;6.20;;;4.30;;
50681;SDS011;36779;52.168;20.878;2023-04-25T04:23:49;9.50;;;4.00;;
50681;SDS011;36779;52.168;20.878;2023-04-25T04:26:44;7.00;;;4.10;;
50681;SDS011;36779;52.168;20.878;2023-04-25T04:30:01;9.40;;;4.80;;
50681;SDS011;36779;52.168;20.878;2023-04-25T04:32:59;8.80;;;4.40;;
50681;SDS011;36779;52.168;20.878;2023-04-25T04:35:54;5.40;;;3.20;;
50681;SDS011;36779;52.168;20.878;2023-04-25T04:38:48;8.00;;;4.60;;
50681;SDS011;36779;52.168;20.878;2023-04-25T04:41:43;8.60;;;5.80;;
50681;SDS011;36779;52.168;20.878;2023-04-25T04:44:37;9.60;;;5.20;;
50681;SDS011;36779;52.168;20.878;2023-04-25T04:47:33;8.80;;;5.20;;
50681;SDS011;36779;52.168;20.878;2023-04-25T04:50:33;8.20;;;5.70;;
50681;SDS011;36779;52.168;20.878;2023-04-25T04:53:26;11.20;;;4.70;;
50681;SDS011;36779;52.168;20.878;2023-04-25T04:56:18;7.40;;;4.00;;
50681;SDS011;36779;52.168;20.878;2023-04-25T04:59:18;8.30;;;4.70;;
50681;SDS011;36779;52.168;20.878;2023-04-25T05:02:25;5.30;;;3.50;;
50681;SDS011;36779;52.168;20.878;2023-04-25T05:05:19;8.80;;;5.80;;
50681;SDS011;36779;52.168;20.878;2023-04-25T05:08:13;5.70;;;3.90;;
50681;SDS011;36779;52.168;20.878;2023-04-25T05:11:09;6.50;;;4.40;;
50681;SDS011;36779;52.168;20.878;2023-04-25T05:14:02;7.50;;;4.50;;
50681;SDS011;36779;52.168;20.878;2023-04-25T05:17:09;7.50;;;4.50;;
50681;SDS011;36779;52.168;20.878;2023-04-25T05:20:02;7.20;;;4.70;;
50681;SDS011;36779;52.168;20.878;2023-04-25T05:23:06;6.90;;;4.70;;
50681;SDS011;36779;52.168;20.878;2023-04-25T05:25:58;9.40;;;5.20;;
50681;SDS011;36779;52.168;20.878;2023-04-25T05:28:56;12.00;;;5.50;;
50681;SDS011;36779;52.168;20.878;2023-04-25T05:32:01;5.40;;;3.70;;
50681;SDS011;36779;52.168;20.878;2023-04-25T05:34:59;8.40;;;4.40;;
50681;SDS011;36779;52.168;20.878;2023-04-25T05:37:54;10.00;;;5.60;;
50681;SDS011;36779;52.168;20.878;2023-04-25T05:40:47;10.10;;;5.60;;
50681;SDS011;36779;52.168;20.878;2023-04-25T05:43:56;7.70;;;4.70;;
50681;SDS011;36779;52.168;20.878;2023-04-25T05:46:52;8.90;;;5.70;;
50681;SDS011;36779;52.168;20.878;2023-04-25T05:49:54;8.70;;;5.20;;
50681;SDS011;36779;52.168;20.878;2023-04-25T05:53:05;9.20;;;5.60;;
50681;SDS011;36779;52.168;20.878;2023-04-25T05:55:58;10.80;;;6.30;;
50681;SDS011;36779;52.168;20.878;2023-04-25T05:58:52;8.00;;;5.70;;
50681;SDS011;36779;52.168;20.878;2023-04-25T06:01:36;7.40;;;3.90;;
50681;SDS011;36779;52.168;20.878;2023-04-25T06:04:33;6.90;;;3.70;;
50681;SDS011;36779;52.168;20.878;2023-04-25T06:07:28;6.60;;;4.60;;
50681;SDS011;36779;52.168;20.878;2023-04-25T06:10:22;9.10;;;5.90;;
50681;SDS011;36779;52.168;20.878;2023-04-25T06:13:20;15.40;;;8.50;;
50681;SDS011;36779;52.168;20.878;2023-04-25T06:16:13;17.00;;;8.60;;
50681;SDS011;36779;52.168;20.878;2023-04-25T06:19:06;16.30;;;9.10;;
50681;SDS011;36779;52.168;20.878;2023-04-25T06:22:00;13.10;;;8.70;;
50681;SDS011;36779;52.168;20.878;2023-04-25T06:24:55;10.90;;;5.60;;
50681;SDS011;36779;52.168;20.878;2023-04-25T06:27:54;9.30;;;4.40;;
50681;SDS011;36779;52.168;20.878;2023-04-25T06:31:11;6.50;;;3.50;;
50681;SDS011;36779;52.168;20.878;2023-04-25T06:38:16;9.00;;;4.40;;
50681;SDS011;36779;52.168;20.878;2023-04-25T06:41:13;6.50;;;3.50;;
50681;SDS011;36779;52.168;20.878;2023-04-25T06:44:09;8.30;;;5.10;;
50681;SDS011;36779;52.168;20.878;2023-04-25T06:47:20;9.90;;;5.20;;
50681;SDS011;36779;52.168;20.878;2023-04-25T06:50:11;5.00;;;3.20;;
50681;SDS011;36779;52.168;20.878;2023-04-25T06:53:04;9.60;;;4.70;;
50681;SDS011;36779;52.168;20.878;2023-04-25T06:56:03;7.10;;;4.60;;
50681;SDS011;36779;52.168;20.878;2023-04-25T06:59:01;7.90;;;4.40;;
50681;SDS011;36779;52.168;20.878;2023-04-25T07:01:55;9.40;;;5.40;;
50681;SDS011;36779;52.168;20.878;2023-04-25T07:04:55;8.70;;;4.40;;
50681;SDS011;36779;52.168;20.878;2023-04-25T07:07:58;8.20;;;4.10;;
50681;SDS011;36779;52.168;20.878;2023-04-25T07:11:09;5.70;;;2.90;;
50681;SDS011;36779;52.168;20.878;2023-04-25T07:14:01;8.80;;;5.00;;
50681;SDS011;36779;52.168;20.878;2023-04-25T07:21:46;8.00;;;4.30;;
50681;SDS011;36779;52.168;20.878;2023-04-25T07:24:42;6.40;;;3.60;;
50681;SDS011;36779;52.168;20.878;2023-04-25T07:27:38;7.20;;;3.30;;
50681;SDS011;36779;52.168;20.878;2023-04-25T07:30:31;6.30;;;4.10;;
50681;SDS011;36779;52.168;20.878;2023-04-25T07:33:25;10.60;;;5.10;;
50681;SDS011;36779;52.168;20.878;2023-04-25T07:36:34;8.10;;;5.40;;
50681;SDS011;36779;52.168;20.878;2023-04-25T07:39:27;5.20;;;4.10;;
50681;SDS011;36779;52.168;20.878;2023-04-25T07:42:20;6.00;;;3.90;;
50681;SDS011;36779;52.168;20.878;2023-04-25T07:45:15;5.10;;;3.80;;
50681;SDS011;36779;52.168;20.878;2023-04-25T07:48:08;4.00;;;2.60;;
50681;SDS011;36779;52.168;20.878;2023-04-25T07:50:53;6.00;;;3.60;;
50681;SDS011;36779;52.168;20.878;2023-04-25T07:53:45;4.80;;;3.30;;
50681;SDS011;36779;52.168;20.878;2023-04-25T07:56:47;6.10;;;2.10;;
50681;SDS011;36779;52.168;20.878;2023-04-25T08:00:06;4.00;;;2.80;;
50681;SDS011;36779;52.168;20.878;2023-04-25T08:03:06;3.20;;;1.40;;
50681;SDS011;36779;52.168;20.878;2023-04-25T08:06:04;5.60;;;3.30;;
50681;SDS011;36779;52.168;20.878;2023-04-25T08:09:05;5.20;;;2.40;;
50681;SDS011;36779;52.168;20.878;2023-04-25T08:11:59;5.50;;;2.30;;
50681;SDS011;36779;52.168;20.878;2023-04-25T08:14:55;3.10;;;2.40;;
50681;SDS011;36779;52.168;20.878;2023-04-25T08:17:48;6.60;;;2.70;;
50681;SDS011;36779;52.168;20.878;2023-04-25T08:20:43;4.50;;;3.00;;
50681;SDS011;36779;52.168;20.878;2023-04-25T08:23:45;3.80;;;2.40;;
50681;SDS011;36779;52.168;20.878;2023-04-25T08:26:54;4.50;;;2.80;;
50681;SDS011;36779;52.168;20.878;2023-04-25T08:29:49;5.50;;;3.70;;
50681;SDS011;36779;52.168;20.878;2023-04-25T08:32:43;6.30;;;3.50;;
50681;SDS011;36779;52.168;20.878;2023-04-25T08:35:50;5.30;;;3.10;;
50681;SDS011;36779;52.168;20.878;2023-04-25T08:38:37;4.60;;;2.80;;
50681;SDS011;36779;52.168;20.878;2023-04-25T08:41:32;3.30;;;2.70;;
50681;SDS011;36779;52.168;20.878;2023-04-25T08:45:00;4.40;;;2.50;;
50681;SDS011;36779;52.168;20.878;2023-04-25T08:47:59;5.40;;;2.20;;
50681;SDS011;36779;52.168;20.878;2023-04-25T08:50:58;3.60;;;2.30;;
50681;SDS011;36779;52.168;20.878;2023-04-25T08:53:52;3.80;;;2.70;;
50681;SDS011;36779;52.168;20.878;2023-04-25T08:57:09;5.30;;;3.40;;
50681;SDS011;36779;52.168;20.878;2023-04-25T09:00:04;3.60;;;2.70;;
50681;SDS011;36779;52.168;20.878;2023-04-25T09:03:02;6.60;;;2.30;;
50681;SDS011;36779;52.168;20.878;2023-04-25T09:05:58;3.70;;;2.50;;
50681;SDS011;36779;52.168;20.878;2023-04-25T09:08:51;4.10;;;2.40;;
50681;SDS011;36779;52.168;20.878;2023-04-25T09:11:40;3.90;;;2.70;;
50681;SDS011;36779;52.168;20.878;2023-04-25T09:14:34;1.90;;;1.50;;
50681;SDS011;36779;52.168;20.878;2023-04-25T09:17:28;4.60;;;2.90;;
50681;SDS011;36779;52.168;20.878;2023-04-25T09:20:21;4.30;;;2.30;;
50681;SDS011;36779;52.168;20.878;2023-04-25T09:23:16;5.00;;;3.40;;
50681;SDS011;36779;52.168;20.878;2023-04-25T09:26:15;6.30;;;3.00;;
50681;SDS011;36779;52.168;20.878;2023-04-25T09:29:09;5.00;;;3.60;;
50681;SDS011;36779;52.168;20.878;2023-04-25T09:32:14;4.50;;;3.30;;
50681;SDS011;36779;52.168;20.878;2023-04-25T09:35:27;4.00;;;2.50;;
50681;SDS011;36779;52.168;20.878;2023-04-25T09:38:21;5.70;;;2.50;;
50681;SDS011;36779;52.168;20.878;2023-04-25T09:41:21;3.20;;;1.80;;
50681;SDS011;36779;52.168;20.878;2023-04-25T09:44:19;4.50;;;3.10;;
50681;SDS011;36779;52.168;20.878;2023-04-25T09:47:19;3.60;;;2.80;;
50681;SDS011;36779;52.168;20.878;2023-04-25T09:50:16;8.10;;;3.70;;
50681;SDS011;36779;52.168;20.878;2023-04-25T09:53:11;8.50;;;4.10;;
50681;SDS011;36779;52.168;20.878;2023-04-25T09:56:07;6.50;;;4.20;;
50681;SDS011;36779;52.168;20.878;2023-04-25T09:59:02;5.20;;;3.90;;
50681;SDS011;36779;52.168;20.878;2023-04-25T10:01:56;9.00;;;4.80;;
50681;SDS011;36779;52.168;20.878;2023-04-25T10:04:51;6.20;;;3.90;;
50681;SDS011;36779;52.168;20.878;2023-04-25T10:07:54;5.80;;;3.70;;
50681;SDS011;36779;52.168;20.878;2023-04-25T10:10:49;5.50;;;3.90;;
50681;SDS011;36779;52.168;20.878;2023-04-25T10:13:53;4.90;;;3.40;;
50681;SDS011;36779;52.168;20.878;2023-04-25T10:16:47;4.80;;;2.90;;
50681;SDS011;36779;52.168;20.878;2023-04-25T10:19:43;5.80;;;3.00;;
50681;SDS011;36779;52.168;20.878;2023-04-25T10:22:37;4.00;;;3.10;;
50681;SDS011;36779;52.168;20.878;2023-04-25T10:29:05;6.60;;;3.60;;
50681;SDS011;36779;52.168;20.878;2023-04-25T10:32:14;7.40;;;4.50;;
50681;SDS011;36779;52.168;20.878;2023-04-25T10:35:11;7.30;;;5.00;;
50681;SDS011;36779;52.168;20.878;2023-04-25T10:38:09;4.50;;;3.30;;
50681;SDS011;36779;52.168;20.878;2023-04-25T10:41:05;5.40;;;3.00;;
50681;SDS011;36779;52.168;20.878;2023-04-25T10:44:02;5.90;;;3.60;;
50681;SDS011;36779;52.168;20.878;2023-04-25T10:46:57;7.60;;;4.10;;
50681;SDS011;36779;52.168;20.878;2023-04-25T10:49:53;12.10;;;4.50;;
50681;SDS011;36779;52.168;20.878;2023-04-25T10:52:46;9.50;;;4.50;;
50681;SDS011;36779;52.168;20.878;2023-04-25T10:55:50;6.00;;;3.50;;
50681;SDS011;36779;52.168;20.878;2023-04-25T10:58:44;5.50;;;3.00;;
50681;SDS011;36779;52.168;20.878;2023-04-25T11:01:42;4.20;;;2.60;;
50681;SDS011;36779;52.168;20.878;2023-04-25T11:04:38;5.20;;;2.10;;
50681;SDS011;36779;52.168;20.878;2023-04-25T11:07:37;8.60;;;3.10;;
50681;SDS011;36779;52.168;20.878;2023-04-25T11:10:48;6.10;;;3.40;;
50681;SDS011;36779;52.168;20.878;2023-04-25T11:13:42;6.50;;;3.50;;
50681;SDS011;36779;52.168;20.878;2023-04-25T11:16:54;5.40;;;3.20;;
50681;SDS011;36779;52.168;20.878;2023-04-25T11:23:37;4.00;;;2.00;;
50681;SDS011;36779;52.168;20.878;2023-04-25T11:27:23;3.20;;;2.60;;
50681;SDS011;36779;52.168;20.878;2023-04-25T11:30:49;3.30;;;2.40;;
50681;SDS011;36779;52.168;20.878;2023-04-25T11:34:26;4.00;;;2.10;;
50681;SDS011;36779;52.168;20.878;2023-04-25T11:37:22;3.80;;;2.30;;
50681;SDS011;36779;52.168;20.878;2023-04-25T11:40:15;1.90;;;1.30;;
50681;SDS011;36779;52.168;20.878;2023-04-25T11:43:08;2.70;;;2.10;;
50681;SDS011;36779;52.168;20.878;2023-04-25T11:46:01;3.20;;;2.10;;
50681;SDS011;36779;52.168;20.878;2023-04-25T11:48:59;2.60;;;2.10;;
50681;SDS011;36779;52.168;20.878;2023-04-25T11:51:54;3.20;;;2.00;;
50681;SDS011;36779;52.168;20.878;2023-04-25T11:54:47;4.50;;;2.40;;
50681;SDS011;36779;52.168;20.878;2023-04-25T11:57:42;2.80;;;2.10;;
50681;SDS011;36779;52.168;20.878;2023-04-25T12:00:37;4.60;;;2.40;;
50681;SDS011;36779;52.168;20.878;2023-04-25T12:03:48;4.00;;;2.40;;
50681;SDS011;36779;52.168;20.878;2023-04-25T12:07:02;4.40;;;2.90;;
50681;SDS011;36779;52.168;20.878;2023-04-25T12:09:56;4.10;;;2.50;;
50681;SDS011;36779;52.168;20.878;2023-04-25T12:12:50;4.20;;;2.70;;
50681;SDS011;36779;52.168;20.878;2023-04-25T12:15:45;4.40;;;2.90;;
50681;SDS011;36779;52.168;20.878;2023-04-25T12:19:00;6.50;;;3.40;;
50681;SDS011;36779;52.168;20.878;2023-04-25T12:21:47;5.50;;;3.60;;
50681;SDS011;36779;52.168;20.878;2023-04-25T12:24:44;5.10;;;2.90;;
50681;SDS011;36779;52.168;20.878;2023-04-25T12:27:28;5.40;;;2.90;;
50681;SDS011;36779;52.168;20.878;2023-04-25T12:30:23;3.90;;;2.80;;
50681;SDS011;36779;52.168;20.878;2023-04-25T12:33:17;5.30;;;2.70;;
50681;SDS011;36779;52.168;20.878;2023-04-25T12:36:10;3.80;;;2.60;;
50681;SDS011;36779;52.168;20.878;2023-04-25T12:39:04;3.40;;;2.40;;
50681;SDS011;36779;52.168;20.878;2023-04-25T12:41:59;5.10;;;2.80;;
50681;SDS011;36779;52.168;20.878;2023-04-25T12:44:57;5.30;;;3.10;;
50681;SDS011;36779;52.168;20.878;2023-04-25T12:47:50;5.70;;;3.30;;
50681;SDS011;36779;52.168;20.878;2023-04-25T12:50:45;6.40;;;2.70;;
50681;SDS011;36779;52.168;20.878;2023-04-25T12:53:45;3.60;;;2.20;;
50681;SDS011;36779;52.168;20.878;2023-04-25T12:56:45;4.70;;;2.80;;
50681;SDS011;36779;52.168;20.878;2023-04-25T12:59:57;3.00;;;2.60;;
50681;SDS011;36779;52.168;20.878;2023-04-25T13:02:50;3.00;;;2.20;;
50681;SDS011;36779;52.168;20.878;2023-04-25T13:05:46;6.10;;;3.30;;
50681;SDS011;36779;52.168;20.878;2023-04-25T13:08:40;3.20;;;2.40;;
50681;SDS011;36779;52.168;20.878;2023-04-25T13:11:34;3.80;;;2.60;;
50681;SDS011;36779;52.168;20.878;2023-04-25T13:14:27;7.90;;;3.80;;
50681;SDS011;36779;52.168;20.878;2023-04-25T13:17:21;5.80;;;3.90;;
50681;SDS011;36779;52.168;20.878;2023-04-25T13:20:16;4.60;;;3.10;;
50681;SDS011;36779;52.168;20.878;2023-04-25T13:23:13;6.80;;;3.50;;
50681;SDS011;36779;52.168;20.878;2023-04-25T13:26:05;6.00;;;3.30;;
50681;SDS011;36779;52.168;20.878;2023-04-25T13:28:58;4.90;;;2.90;;
50681;SDS011;36779;52.168;20.878;2023-04-25T13:31:53;6.10;;;2.80;;
50681;SDS011;36779;52.168;20.878;2023-04-25T13:34:48;3.60;;;2.70;;
50681;SDS011;36779;52.168;20.878;2023-04-25T13:37:44;7.40;;;4.00;;
50681;SDS011;36779;52.168;20.878;2023-04-25T13:40:37;4.60;;;3.00;;
50681;SDS011;36779;52.168;20.878;2023-04-25T13:43:30;4.50;;;3.20;;
50681;SDS011;36779;52.168;20.878;2023-04-25T13:46:25;6.00;;;4.00;;
50681;SDS011;36779;52.168;20.878;2023-04-25T13:49:36;8.00;;;5.00;;
50681;SDS011;36779;52.168;20.878;2023-04-25T13:52:28;8.20;;;4.00;;
50681;SDS011;36779;52.168;20.878;2023-04-25T13:55:21;6.50;;;5.50;;
50681;SDS011;36779;52.168;20.878;2023-04-25T13:58:19;6.90;;;4.80;;
50681;SDS011;36779;52.168;20.878;2023-04-25T14:01:13;4.80;;;3.30;;
50681;SDS011;36779;52.168;20.878;2023-04-25T14:04:08;6.60;;;3.40;;
50681;SDS011;36779;52.168;20.878;2023-04-25T14:07:01;8.60;;;4.30;;
50681;SDS011;36779;52.168;20.878;2023-04-25T14:09:56;4.20;;;3.40;;
50681;SDS011;36779;52.168;20.878;2023-04-25T14:12:49;5.80;;;3.50;;
50681;SDS011;36779;52.168;20.878;2023-04-25T14:15:42;7.10;;;4.60;;
50681;SDS011;36779;52.168;20.878;2023-04-25T14:18:35;6.90;;;4.10;;
50681;SDS011;36779;52.168;20.878;2023-04-25T14:21:28;7.10;;;4.50;;
50681;SDS011;36779;52.168;20.878;2023-04-25T14:24:43;5.50;;;4.20;;
50681;SDS011;36779;52.168;20.878;2023-04-25T14:27:58;5.90;;;3.10;;
50681;SDS011;36779;52.168;20.878;2023-04-25T14:30:51;6.00;;;4.00;;
50681;SDS011;36779;52.168;20.878;2023-04-25T14:33:45;6.10;;;3.50;;
50681;SDS011;36779;52.168;20.878;2023-04-25T14:36:41;4.50;;;2.80;;
50681;SDS011;36779;52.168;20.878;2023-04-25T14:39:34;6.80;;;4.30;;
50681;SDS011;36779;52.168;20.878;2023-04-25T14:42:28;3.70;;;2.70;;
50681;SDS011;36779;52.168;20.878;2023-04-25T14:45:23;4.10;;;2.80;;
50681;SDS011;36779;52.168;20.878;2023-04-25T14:48:17;4.30;;;2.90;;
50681;SDS011;36779;52.168;20.878;2023-04-25T14:51:34;7.00;;;3.70;;
50681;SDS011;36779;52.168;20.878;2023-04-25T14:54:27;6.70;;;3.30;;
50681;SDS011;36779;52.168;20.878;2023-04-25T14:57:20;9.60;;;4.10;;
50681;SDS011;36779;52.168;20.878;2023-04-25T15:00:20;7.70;;;4.90;;
50681;SDS011;36779;52.168;20.878;2023-04-25T15:03:16;7.10;;;5.00;;
50681;SDS011;36779;52.168;20.878;2023-04-25T15:06:09;7.50;;;4.50;;
50681;SDS011;36779;52.168;20.878;2023-04-25T15:09:02;7.70;;;4.50;;
50681;SDS011;36779;52.168;20.878;2023-04-25T15:11:57;7.20;;;4.40;;
50681;SDS011;36779;52.168;20.878;2023-04-25T15:14:50;8.20;;;4.00;;
50681;SDS011;36779;52.168;20.878;2023-04-25T15:17:44;5.50;;;3.70;;
50681;SDS011;36779;52.168;20.878;2023-04-25T15:20:38;6.40;;;3.70;;
50681;SDS011;36779;52.168;20.878;2023-04-25T15:23:32;5.40;;;3.70;;
50681;SDS011;36779;52.168;20.878;2023-04-25T15:26:24;8.90;;;4.90;;
50681;SDS011;36779;52.168;20.878;2023-04-25T15:29:11;8.10;;;4.40;;
50681;SDS011;36779;52.168;20.878;2023-04-25T15:32:05;7.00;;;4.00;;
50681;SDS011;36779;52.168;20.878;2023-04-25T15:34:58;7.60;;;4.50;;
50681;SDS011;36779;52.168;20.878;2023-04-25T15:37:53;8.70;;;4.40;;
50681;SDS011;36779;52.168;20.878;2023-04-25T15:40:51;7.00;;;4.40;;
50681;SDS011;36779;52.168;20.878;2023-04-25T15:43:47;5.70;;;3.80;;
50681;SDS011;36779;52.168;20.878;2023-04-25T15:46:42;7.30;;;3.30;;
50681;SDS011;36779;52.168;20.878;2023-04-25T15:49:37;7.00;;;4.50;;
50681;SDS011;36779;52.168;20.878;2023-04-25T15:52:29;10.00;;;4.90;;
50681;SDS011;36779;52.168;20.878;2023-04-25T15:55:23;6.60;;;3.90;;
50681;SDS011;36779;52.168;20.878;2023-04-25T15:58:16;6.30;;;3.40;;
50681;SDS011;36779;52.168;20.878;2023-04-25T16:01:09;7.40;;;3.50;;
50681;SDS011;36779;52.168;20.878;2023-04-25T16:04:02;6.80;;;4.00;;
50681;SDS011;36779;52.168;20.878;2023-04-25T16:06:55;5.90;;;3.90;;
50681;SDS011;36779;52.168;20.878;2023-04-25T16:09:48;7.90;;;4.40;;
50681;SDS011;36779;52.168;20.878;2023-04-25T16:12:41;11.50;;;4.50;;
50681;SDS011;36779;52.168;20.878;2023-04-25T16:15:33;6.70;;;4.20;;
50681;SDS011;36779;52.168;20.878;2023-04-25T16:18:27;8.80;;;3.80;;
50681;SDS011;36779;52.168;20.878;2023-04-25T16:21:20;10.00;;;5.40;;
50681;SDS011;36779;52.168;20.878;2023-04-25T16:24:13;7.20;;;3.80;;
50681;SDS011;36779;52.168;20.878;2023-04-25T16:27:06;7.20;;;4.40;;
50681;SDS011;36779;52.168;20.878;2023-04-25T16:29:59;7.70;;;4.80;;
50681;SDS011;36779;52.168;20.878;2023-04-25T16:32:52;10.30;;;4.20;;
50681;SDS011;36779;52.168;20.878;2023-04-25T16:35:46;6.70;;;3.90;;
50681;SDS011;36779;52.168;20.878;2023-04-25T16:38:44;7.70;;;4.00;;
50681;SDS011;36779;52.168;20.878;2023-04-25T16:41:38;4.40;;;2.60;;
50681;SDS011;36779;52.168;20.878;2023-04-25T16:44:31;5.80;;;3.50;;
50681;SDS011;36779;52.168;20.878;2023-04-25T16:47:24;4.80;;;3.10;;
50681;SDS011;36779;52.168;20.878;2023-04-25T16:50:17;4.90;;;3.20;;
50681;SDS011;36779;52.168;20.878;2023-04-25T16:53:10;5.00;;;2.90;;
50681;SDS011;36779;52.168;20.878;2023-04-25T16:56:03;7.10;;;3.60;;
50681;SDS011;36779;52.168;20.878;2023-04-25T16:58:57;6.80;;;3.80;;
50681;SDS011;36779;52.168;20.878;2023-04-25T17:01:50;8.00;;;3.90;;
50681;SDS011;36779;52.168;20.878;2023-04-25T17:04:47;7.10;;;3.50;;
50681;SDS011;36779;52.168;20.878;2023-04-25T17:07:39;5.00;;;2.30;;
50681;SDS011;36779;52.168;20.878;2023-04-25T17:10:32;5.10;;;2.70;;
50681;SDS011;36779;52.168;20.878;2023-04-25T17:13:25;4.80;;;2.70;;
50681;SDS011;36779;52.168;20.878;2023-04-25T17:16:20;7.70;;;3.80;;
50681;SDS011;36779;52.168;20.878;2023-04-25T17:19:14;8.90;;;4.30;;
50681;SDS011;36779;52.168;20.878;2023-04-25T17:22:10;14.30;;;4.10;;
50681;SDS011;36779;52.168;20.878;2023-04-25T17:25:04;4.80;;;2.00;;
50681;SDS011;36779;52.168;20.878;2023-04-25T17:27:58;7.00;;;3.70;;
50681;SDS011;36779;52.168;20.878;2023-04-25T17:30:51;6.60;;;4.40;;
50681;SDS011;36779;52.168;20.878;2023-04-25T17:33:47;8.90;;;4.20;;
50681;SDS011;36779;52.168;20.878;2023-04-25T17:36:40;7.70;;;4.20;;
50681;SDS011;36779;52.168;20.878;2023-04-25T17:39:33;7.80;;;4.00;;
50681;SDS011;36779;52.168;20.878;2023-04-25T17:42:25;6.90;;;3.40;;